createdAt,value
2022-12-01T00:01:21.442Z,11.80
2022-12-01T00:03:48.976Z,11.50
2022-12-01T00:06:19.934Z,10.80
2022-12-01T00:09:07.453Z,10.90
2022-12-01T00:11:36.742Z,10.40
2022-12-01T00:14:04.329Z,17.00
2022-12-01T00:16:31.548Z,12.90
2022-12-01T00:18:58.870Z,13.40
2022-12-01T00:21:27.329Z,12.30
2022-12-01T00:23:57.014Z,15.70
2022-12-01T00:26:25.727Z,15.10
2022-12-01T00:28:57.872Z,14.00
2022-12-01T00:31:25.997Z,17.30
2022-12-01T00:33:53.143Z,19.40
2022-12-01T00:36:21.634Z,23.10
2022-12-01T00:38:52.715Z,21.00
2022-12-01T00:41:20.153Z,17.50
2022-12-01T00:43:47.171Z,15.50
2022-12-01T00:46:14.287Z,17.00
2022-12-01T00:48:42.061Z,18.40
2022-12-01T00:51:09.108Z,16.90
2022-12-01T00:53:36.080Z,16.30
2022-12-01T00:56:03.282Z,19.40
2022-12-01T00:58:30.330Z,13.60
2022-12-01T01:01:01.854Z,15.10
2022-12-01T01:03:30.597Z,19.10
2022-12-01T01:06:04.634Z,18.60
2022-12-01T01:08:31.659Z,12.50
2022-12-01T01:11:01.059Z,13.90
2022-12-01T01:13:29.386Z,15.60
2022-12-01T01:16:00.749Z,16.40
2022-12-01T01:18:28.604Z,14.30
2022-12-01T01:20:57.878Z,23.10
2022-12-01T01:23:25.157Z,14.80
2022-12-01T01:25:52.334Z,13.90
2022-12-01T01:28:20.072Z,17.80
2022-12-01T01:30:47.745Z,19.10
2022-12-01T01:33:14.937Z,19.50
2022-12-01T01:35:42.011Z,17.90
2022-12-01T01:38:09.008Z,17.90
2022-12-01T01:40:43.098Z,14.00
2022-12-01T01:43:42.427Z,13.20
2022-12-01T01:46:15.802Z,12.90
2022-12-01T01:48:48.579Z,11.80
2022-12-01T01:51:18.905Z,10.50
2022-12-01T01:53:46.977Z,11.40
2022-12-01T01:56:14.006Z,10.30
2022-12-01T01:58:41.920Z,12.70
2022-12-01T02:01:09.433Z,17.20
2022-12-01T02:03:39.957Z,16.20
2022-12-01T02:06:09.567Z,15.20
2022-12-01T02:08:38.341Z,20.90
2022-12-01T02:11:20.429Z,24.30
2022-12-01T02:14:18.940Z,23.00
2022-12-01T02:17:01.881Z,31.00
2022-12-01T02:19:51.195Z,28.10
2022-12-01T02:22:36.687Z,24.00
2022-12-01T02:25:28.670Z,22.40
2022-12-01T02:28:37.343Z,25.20
2022-12-01T02:31:28.943Z,15.50
2022-12-01T02:34:39.947Z,9.80
2022-12-01T02:37:16.204Z,19.50
2022-12-01T02:39:56.084Z,20.70
2022-12-01T02:43:02.587Z,14.20
2022-12-01T02:45:37.285Z,14.70
2022-12-01T02:48:11.374Z,13.60
2022-12-01T02:50:40.782Z,12.60
2022-12-01T02:53:10.566Z,17.90
2022-12-01T02:55:45.958Z,18.60
2022-12-01T02:58:14.594Z,15.20
2022-12-01T03:00:57.461Z,10.70
2022-12-01T03:04:02.860Z,11.20
2022-12-01T03:06:50.085Z,10.70
2022-12-01T03:09:36.100Z,7.20
2022-12-01T03:12:37.659Z,7.70
2022-12-01T03:15:20.041Z,10.30
2022-12-01T03:17:54.920Z,10.60
2022-12-01T03:20:32.109Z,12.10
2022-12-01T03:23:07.987Z,11.50
2022-12-01T03:25:36.674Z,10.50
2022-12-01T03:28:22.251Z,10.20
2022-12-01T03:33:33.087Z,9.10
2022-12-01T03:36:06.595Z,8.50
2022-12-01T03:38:36.418Z,8.40
2022-12-01T03:41:11.218Z,7.40
2022-12-01T03:43:45.052Z,7.50
2022-12-01T03:46:50.393Z,6.60
2022-12-01T03:49:18.648Z,9.50
2022-12-01T03:51:56.141Z,8.50
2022-12-01T03:54:29.104Z,7.30
2022-12-01T03:57:02.035Z,6.70
2022-12-01T03:59:30.977Z,6.90
2022-12-01T04:01:58.559Z,11.20
2022-12-01T04:04:25.816Z,11.20
2022-12-01T04:06:52.915Z,11.50
2022-12-01T04:09:19.939Z,15.20
2022-12-01T04:12:05.699Z,9.90
2022-12-01T04:14:33.233Z,9.50
2022-12-01T04:17:00.410Z,8.50
2022-12-01T04:19:27.381Z,11.10
2022-12-01T04:21:54.403Z,9.40
2022-12-01T04:24:21.452Z,8.60
2022-12-01T04:26:48.474Z,8.90
2022-12-01T04:29:15.579Z,8.50
2022-12-01T04:31:42.755Z,6.90
2022-12-01T04:34:10.593Z,5.90
2022-12-01T04:36:37.641Z,5.00
2022-12-01T04:39:04.944Z,5.70
2022-12-01T04:41:32.044Z,6.20
2022-12-01T04:43:59.091Z,5.10
2022-12-01T04:46:26.528Z,5.40
2022-12-01T04:48:53.754Z,9.80
2022-12-01T04:51:21.475Z,8.90
2022-12-01T04:53:49.591Z,6.80
2022-12-01T04:56:16.640Z,6.30
2022-12-01T04:58:44.351Z,6.40
2022-12-01T05:01:13.538Z,5.80
2022-12-01T05:03:43.618Z,6.10
2022-12-01T05:06:15.223Z,6.30
2022-12-01T05:08:42.594Z,6.40
2022-12-01T05:11:12.178Z,7.60
2022-12-01T05:13:45.225Z,7.70
2022-12-01T05:16:21.232Z,6.70
2022-12-01T05:19:13.753Z,5.40
2022-12-01T05:21:42.441Z,5.90
2022-12-01T05:24:10.717Z,5.30
2022-12-01T05:29:05.249Z,5.90
2022-12-01T05:31:32.575Z,6.00
2022-12-01T05:33:59.680Z,5.80
2022-12-01T05:36:26.896Z,7.80
2022-12-01T05:38:54.747Z,6.90
2022-12-01T05:41:21.801Z,6.70
2022-12-01T05:43:48.848Z,6.70
2022-12-01T05:46:15.975Z,7.10
2022-12-01T05:48:43.071Z,6.10
2022-12-01T05:51:15.415Z,7.60
2022-12-01T05:53:43.001Z,8.10
2022-12-01T05:56:10.509Z,8.50
2022-12-01T05:58:37.611Z,9.20
2022-12-01T06:01:04.865Z,7.40
2022-12-01T06:03:32.090Z,8.30
2022-12-01T06:05:59.061Z,6.80
2022-12-01T06:08:26.110Z,5.10
2022-12-01T06:10:53.118Z,7.30
2022-12-01T06:13:20.246Z,6.50
2022-12-01T06:15:59.208Z,12.90
2022-12-01T06:18:34.423Z,14.50
2022-12-01T06:21:01.908Z,12.60
2022-12-01T06:23:30.557Z,8.60
2022-12-01T06:25:58.716Z,21.80
2022-12-01T06:28:25.790Z,9.50
2022-12-01T06:30:56.644Z,8.40
2022-12-01T06:33:28.185Z,9.50
2022-12-01T06:36:02.386Z,8.20
2022-12-01T06:38:37.103Z,10.10
2022-12-01T06:41:05.481Z,10.00
2022-12-01T06:43:32.580Z,9.30
2022-12-01T06:46:02.020Z,11.50
2022-12-01T06:48:29.851Z,9.50
2022-12-01T06:50:58.440Z,10.90
2022-12-01T06:53:27.489Z,10.20
2022-12-01T06:56:04.856Z,10.80
2022-12-01T06:58:32.608Z,26.10
2022-12-01T07:01:00.192Z,23.00
2022-12-01T07:03:27.630Z,25.90
2022-12-01T07:05:56.213Z,40.50
2022-12-01T07:08:23.235Z,32.40
2022-12-01T07:11:00.550Z,26.90
2022-12-01T07:13:33.053Z,24.80
2022-12-01T07:16:04.577Z,23.50
2022-12-01T07:18:32.420Z,20.50
2022-12-01T07:21:01.131Z,28.70
2022-12-01T07:23:28.438Z,20.80
2022-12-01T07:26:04.546Z,22.80
2022-12-01T07:28:31.690Z,25.10
2022-12-01T07:31:10.261Z,21.30
2022-12-01T07:33:37.901Z,19.90
2022-12-01T07:36:05.821Z,20.20
2022-12-01T07:38:34.508Z,28.60
2022-12-01T07:41:03.757Z,22.60
2022-12-01T07:43:32.624Z,22.80
2022-12-01T07:46:15.884Z,25.90
2022-12-01T07:48:49.461Z,26.00
2022-12-01T07:51:16.912Z,34.90
2022-12-01T07:53:45.905Z,26.90
2022-12-01T07:56:13.489Z,34.80
2022-12-01T07:58:40.769Z,32.70
2022-12-01T08:01:16.611Z,34.90
2022-12-01T08:03:44.055Z,42.60
2022-12-01T08:06:11.975Z,37.10
2022-12-01T08:08:40.941Z,35.10
2022-12-01T08:11:15.565Z,26.10
2022-12-01T08:13:43.612Z,24.40
2022-12-01T08:16:13.571Z,18.20
2022-12-01T08:18:41.857Z,17.10
2022-12-01T08:21:11.592Z,17.20
2022-12-01T08:23:38.819Z,16.70
2022-12-01T08:26:08.941Z,21.60
2022-12-01T08:28:37.063Z,26.70
2022-12-01T08:31:09.692Z,22.50
2022-12-01T08:33:36.846Z,25.50
2022-12-01T08:36:05.529Z,35.20
2022-12-01T08:38:32.947Z,36.30
2022-12-01T08:41:04.848Z,29.60
2022-12-01T08:43:56.518Z,26.80
2022-12-01T08:46:19.141Z,23.30
2022-12-01T08:48:46.908Z,24.70
2022-12-01T08:51:16.322Z,24.80
2022-12-01T08:53:46.175Z,26.30
2022-12-01T08:56:18.293Z,23.00
2022-12-01T08:58:45.596Z,17.50
2022-12-01T09:01:15.429Z,18.40
2022-12-01T09:03:43.788Z,20.60
2022-12-01T09:06:14.013Z,21.70
2022-12-01T09:08:41.623Z,15.10
2022-12-01T09:11:12.947Z,14.00
2022-12-01T09:13:41.013Z,12.80
2022-12-01T09:16:11.969Z,11.60
2022-12-01T09:18:39.620Z,13.50
2022-12-01T09:21:14.605Z,12.70
2022-12-01T09:23:41.756Z,40.10
2022-12-01T09:26:13.547Z,43.90
2022-12-01T09:28:41.176Z,26.10
2022-12-01T09:31:10.214Z,22.10
2022-12-01T09:33:37.654Z,22.40
2022-12-01T09:36:06.791Z,19.50
2022-12-01T09:38:35.309Z,15.70
2022-12-01T09:41:09.165Z,15.90
2022-12-01T09:43:51.421Z,22.90
2022-12-01T09:46:28.608Z,22.50
2022-12-01T09:48:58.085Z,52.00
2022-12-01T09:51:27.771Z,39.60
2022-12-01T09:53:58.892Z,42.00
2022-12-01T09:56:29.214Z,34.10
2022-12-01T09:59:01.031Z,32.90
2022-12-01T10:01:41.868Z,26.50
2022-12-01T10:04:35.671Z,20.00
2022-12-01T10:07:06.689Z,24.00
2022-12-01T10:09:52.094Z,22.00
2022-12-01T10:12:24.516Z,18.20
2022-12-01T10:14:52.256Z,18.80
2022-12-01T10:17:38.453Z,17.90
2022-12-01T10:20:14.511Z,16.00
2022-12-01T10:23:08.235Z,20.20
2022-12-01T10:25:45.193Z,25.30
2022-12-01T10:28:41.602Z,23.10
2022-12-01T10:31:20.237Z,20.10
2022-12-01T10:34:01.865Z,23.20
2022-12-01T10:36:31.804Z,20.70
2022-12-01T10:38:59.443Z,18.00
2022-12-01T10:41:29.893Z,15.70
2022-12-01T10:44:01.090Z,18.90
2022-12-01T10:46:42.126Z,24.30
2022-12-01T10:49:11.594Z,23.60
2022-12-01T10:51:57.331Z,21.60
2022-12-01T10:54:37.053Z,25.20
2022-12-01T10:57:05.559Z,30.40
2022-12-01T10:59:50.112Z,26.90
2022-12-01T11:02:22.217Z,28.40
2022-12-01T11:04:57.807Z,31.70
2022-12-01T11:07:27.202Z,25.60
2022-12-01T11:10:00.661Z,24.10
2022-12-01T11:12:27.784Z,32.90
2022-12-01T11:14:56.037Z,26.20
2022-12-01T11:17:30.714Z,25.70
2022-12-01T11:19:57.849Z,23.80
2022-12-01T11:22:26.805Z,25.20
2022-12-01T11:24:53.830Z,19.90
2022-12-01T11:27:32.807Z,21.60
2022-12-01T11:30:08.072Z,20.70
2022-12-01T11:32:40.096Z,26.70
2022-12-01T11:35:16.847Z,32.10
2022-12-01T11:38:13.180Z,27.80
2022-12-01T11:40:51.406Z,24.80
2022-12-01T11:43:32.177Z,18.20
2022-12-01T11:46:04.528Z,18.10
2022-12-01T11:48:36.860Z,20.20
2022-12-01T11:51:19.331Z,19.90
2022-12-01T11:53:46.463Z,21.70
2022-12-01T11:56:18.497Z,21.50
2022-12-01T11:58:48.136Z,32.20
2022-12-01T12:01:25.828Z,55.00
2022-12-01T12:04:16.687Z,27.40
2022-12-01T12:07:08.618Z,20.80
2022-12-01T12:09:55.405Z,21.80
2022-12-01T12:12:47.494Z,20.80
2022-12-01T12:15:29.641Z,23.00
2022-12-01T12:18:12.061Z,39.20
2022-12-01T12:20:52.926Z,29.30
2022-12-01T12:23:35.991Z,22.20
2022-12-01T12:26:17.149Z,19.80
2022-12-01T12:29:17.763Z,21.80
2022-12-01T12:32:30.402Z,23.40
2022-12-01T12:35:25.840Z,22.80
2022-12-01T12:38:20.562Z,20.40
2022-12-01T12:40:56.595Z,24.10
2022-12-01T12:44:03.489Z,19.30
2022-12-01T12:46:47.959Z,24.70
2022-12-01T12:49:37.536Z,22.20
2022-12-01T12:52:08.376Z,22.90
2022-12-01T12:54:45.254Z,24.60
2022-12-01T12:57:21.798Z,19.80
2022-12-01T12:59:55.962Z,25.90
2022-12-01T13:02:27.367Z,28.30
2022-12-01T13:05:03.283Z,44.70
2022-12-01T13:07:42.468Z,72.40
2022-12-01T13:10:23.279Z,37.90
2022-12-01T13:13:38.528Z,22.80
2022-12-01T13:16:19.499Z,25.20
2022-12-01T13:19:06.031Z,40.30
2022-12-01T13:21:39.923Z,33.50
2022-12-01T13:24:10.855Z,26.00
2022-12-01T13:26:39.975Z,26.10
2022-12-01T13:29:09.507Z,21.80
2022-12-01T13:31:48.175Z,24.10
2022-12-01T13:34:39.036Z,18.90
2022-12-01T13:37:07.900Z,16.00
2022-12-01T13:39:38.303Z,15.50
2022-12-01T13:42:09.067Z,16.80
2022-12-01T13:44:41.238Z,44.40
2022-12-01T13:47:11.044Z,24.90
2022-12-01T13:49:40.655Z,21.80
2022-12-01T13:52:23.061Z,31.70
2022-12-01T13:55:00.480Z,40.10
2022-12-01T13:57:30.751Z,45.80
2022-12-01T14:00:00.976Z,25.70
2022-12-01T14:02:33.383Z,24.90
2022-12-01T14:05:22.869Z,21.40
2022-12-01T14:07:51.911Z,24.30
2022-12-01T14:10:30.204Z,32.40
2022-12-01T14:13:04.701Z,45.50
2022-12-01T14:15:33.541Z,62.80
2022-12-01T14:18:27.008Z,36.50
2022-12-01T14:20:54.542Z,24.60
2022-12-01T14:23:29.352Z,22.20
2022-12-01T14:26:04.081Z,18.80
2022-12-01T14:28:56.452Z,19.90
2022-12-01T14:31:25.156Z,21.40
2022-12-01T14:33:58.917Z,27.30
2022-12-01T14:36:47.001Z,20.90
2022-12-01T14:39:24.955Z,25.00
2022-12-01T14:41:56.390Z,22.30
2022-12-01T14:44:23.460Z,18.70
2022-12-01T14:47:00.400Z,22.00
2022-12-01T14:49:50.166Z,16.60
2022-12-01T14:52:32.220Z,20.20
2022-12-01T14:55:03.155Z,17.10
2022-12-01T14:57:39.752Z,16.20
2022-12-01T15:00:19.962Z,25.20
2022-12-01T15:02:59.475Z,66.50
2022-12-01T15:05:32.620Z,41.70
2022-12-01T15:11:07.877Z,35.20
2022-12-01T15:13:53.650Z,41.20
2022-12-01T15:16:23.921Z,42.30
2022-12-01T15:18:51.942Z,53.70
2022-12-01T15:21:23.385Z,56.80
2022-12-01T15:23:58.268Z,59.90
2022-12-01T15:26:37.914Z,55.20
2022-12-01T15:29:19.832Z,160.60
2022-12-01T15:31:50.678Z,103.30
2022-12-01T15:34:23.353Z,125.80
2022-12-01T15:36:52.269Z,80.40
2022-12-01T15:39:23.180Z,36.40
2022-12-01T15:41:54.205Z,37.90
2022-12-01T15:44:27.875Z,32.50
2022-12-01T15:46:55.228Z,44.40
2022-12-01T15:49:30.006Z,57.80
2022-12-01T15:52:07.251Z,48.50
2022-12-01T15:54:36.423Z,63.50
2022-12-01T15:57:03.878Z,69.50
2022-12-01T15:59:41.601Z,53.60
2022-12-01T16:02:28.877Z,45.40
2022-12-01T16:05:14.433Z,48.60
2022-12-01T16:10:33.769Z,30.10
2022-12-01T16:13:40.445Z,24.70
2022-12-01T16:16:37.237Z,18.90
2022-12-01T16:19:24.540Z,20.30
2022-12-01T16:21:59.218Z,22.90
2022-12-01T16:24:33.971Z,30.00
2022-12-01T16:27:16.633Z,36.50
2022-12-01T16:29:50.163Z,57.50
2022-12-01T16:32:23.817Z,74.00
2022-12-01T16:34:53.350Z,54.30
2022-12-01T16:37:21.828Z,60.10
2022-12-01T16:39:49.668Z,57.80
2022-12-01T16:42:18.509Z,49.70
2022-12-01T16:44:46.713Z,51.30
2022-12-01T16:47:23.138Z,41.50
2022-12-01T16:49:50.788Z,38.90
2022-12-01T16:55:27.260Z,42.20
2022-12-01T16:57:55.515Z,41.20
2022-12-01T17:00:23.763Z,39.30
2022-12-01T17:02:51.070Z,28.40
2022-12-01T17:05:18.751Z,34.50
2022-12-01T17:07:46.071Z,55.00
2022-12-01T17:10:13.872Z,51.40
2022-12-01T17:12:40.865Z,51.40
2022-12-01T17:15:08.627Z,44.70
2022-12-01T17:17:36.090Z,51.60
2022-12-01T17:20:05.689Z,51.70
2022-12-01T17:22:33.104Z,46.10
2022-12-01T17:25:02.385Z,54.40
2022-12-01T17:27:31.627Z,61.70
2022-12-01T17:29:59.192Z,74.80
2022-12-01T17:32:27.313Z,47.40
2022-12-01T17:34:54.785Z,37.80
2022-12-01T17:37:21.920Z,39.50
2022-12-01T17:39:50.429Z,43.50
2022-12-01T17:42:17.661Z,42.80
2022-12-01T17:44:44.756Z,33.40
2022-12-01T17:47:12.802Z,32.30
2022-12-01T17:49:39.771Z,31.30
2022-12-01T17:52:07.238Z,35.90
2022-12-01T17:54:34.410Z,41.30
2022-12-01T17:57:01.353Z,29.20
2022-12-01T17:59:28.297Z,34.50
2022-12-01T18:01:55.542Z,33.00
2022-12-01T18:04:22.726Z,36.80
2022-12-01T18:06:53.961Z,40.10
2022-12-01T18:09:21.792Z,37.40
2022-12-01T18:11:49.733Z,238.90
2022-12-01T18:14:18.085Z,78.60
2022-12-01T18:16:45.648Z,156.00
2022-12-01T18:19:12.796Z,92.00
2022-12-01T18:21:40.725Z,160.40
2022-12-01T18:24:09.430Z,165.60
2022-12-01T18:26:39.824Z,139.00
2022-12-01T18:29:23.910Z,91.30
2022-12-01T18:31:53.664Z,105.40
2022-12-01T18:34:20.662Z,256.90
2022-12-01T18:36:48.095Z,484.50
2022-12-01T18:39:16.806Z,409.90
2022-12-01T18:41:44.009Z,177.90
2022-12-01T18:44:11.281Z,143.80
2022-12-01T18:46:38.596Z,85.70
2022-12-01T18:49:07.410Z,47.80
2022-12-01T18:51:37.243Z,45.40
2022-12-01T18:54:06.366Z,40.40
2022-12-01T18:56:33.770Z,42.40
2022-12-01T18:59:05.991Z,40.90
2022-12-01T19:01:36.749Z,34.60
2022-12-01T19:04:05.899Z,32.30
2022-12-01T19:06:34.947Z,32.00
2022-12-01T19:09:04.346Z,32.90
2022-12-01T19:11:32.035Z,37.90
2022-12-01T19:13:59.581Z,47.80
2022-12-01T19:16:26.837Z,59.70
2022-12-01T19:18:54.077Z,66.00
2022-12-01T19:21:21.439Z,36.20
2022-12-01T19:23:50.303Z,40.90
2022-12-01T19:26:19.725Z,46.60
2022-12-01T19:28:47.440Z,47.00
2022-12-01T19:31:20.208Z,31.00
2022-12-01T19:33:47.739Z,23.90
2022-12-01T19:36:18.849Z,23.50
2022-12-01T19:38:47.358Z,26.00
2022-12-01T19:41:15.172Z,27.60
2022-12-01T19:43:45.370Z,29.00
2022-12-01T19:46:15.893Z,33.20
2022-12-01T19:48:45.357Z,29.00
2022-12-01T19:51:20.084Z,45.20
2022-12-01T19:53:47.593Z,39.90
2022-12-01T19:56:14.972Z,27.60
2022-12-01T19:58:43.325Z,36.40
2022-12-01T20:01:12.951Z,26.30
2022-12-01T20:03:44.948Z,25.30
2022-12-01T20:06:17.973Z,29.00
2022-12-01T20:08:45.576Z,36.50
2022-12-01T20:11:14.408Z,85.90
2022-12-01T20:13:43.126Z,48.90
2022-12-01T20:16:18.394Z,40.70
2022-12-01T20:18:45.976Z,31.30
2022-12-01T20:21:19.368Z,30.50
2022-12-01T20:23:49.212Z,37.60
2022-12-01T20:26:19.262Z,30.20
2022-12-01T20:28:48.817Z,29.80
2022-12-01T20:31:19.181Z,29.80
2022-12-01T20:33:46.417Z,34.10
2022-12-01T20:36:14.595Z,33.50
2022-12-01T20:38:41.821Z,30.10
2022-12-01T20:41:08.928Z,39.60
2022-12-01T20:43:36.042Z,31.90
2022-12-01T20:46:04.577Z,30.80
2022-12-01T20:48:32.421Z,26.80
2022-12-01T20:51:01.034Z,25.50
2022-12-01T20:53:28.793Z,27.30
2022-12-01T20:55:55.994Z,26.00
2022-12-01T20:58:23.120Z,23.00
2022-12-01T21:00:50.294Z,26.00
2022-12-01T21:03:17.369Z,23.00
2022-12-01T21:05:44.879Z,21.80
2022-12-01T21:08:13.541Z,30.00
2022-12-01T21:10:44.888Z,29.10
2022-12-01T21:13:38.025Z,31.10
2022-12-01T21:16:18.816Z,33.30
2022-12-01T21:18:53.418Z,34.40
2022-12-01T21:21:24.359Z,33.80
2022-12-01T21:24:16.700Z,30.20
2022-12-01T21:26:48.048Z,28.80
2022-12-01T21:29:34.426Z,28.80
2022-12-01T21:32:11.536Z,35.40
2022-12-01T21:34:40.684Z,35.30
2022-12-01T21:37:22.558Z,35.90
2022-12-01T21:39:56.234Z,36.10
2022-12-01T21:42:27.067Z,35.40
2022-12-01T21:44:56.164Z,37.60
2022-12-01T21:47:29.842Z,50.80
2022-12-01T21:49:59.735Z,48.70
2022-12-01T21:52:33.312Z,43.10
2022-12-01T21:55:23.347Z,38.50
2022-12-01T21:57:54.185Z,42.20
2022-12-01T22:00:29.377Z,45.90
2022-12-01T22:03:08.475Z,41.80
2022-12-01T22:05:42.862Z,42.30
2022-12-01T22:08:32.968Z,35.50
2022-12-01T22:11:11.774Z,53.50
2022-12-01T22:13:44.977Z,36.40
2022-12-01T22:16:26.029Z,35.10
2022-12-01T22:18:56.022Z,32.20
2022-12-01T22:21:23.021Z,22.60
2022-12-01T22:24:04.896Z,34.70
2022-12-01T22:26:32.886Z,28.90
2022-12-01T22:29:00.751Z,30.60
2022-12-01T22:31:29.034Z,27.90
2022-12-01T22:34:03.244Z,26.00
2022-12-01T22:36:34.005Z,53.50
2022-12-01T22:39:01.490Z,112.90
2022-12-01T22:41:28.929Z,49.60
2022-12-01T22:43:59.680Z,30.40
2022-12-01T22:46:29.694Z,25.00
2022-12-01T22:49:02.048Z,26.10
2022-12-01T22:51:38.190Z,24.60
2022-12-01T22:54:14.322Z,25.70
2022-12-01T22:56:51.197Z,25.80
2022-12-01T22:59:24.183Z,28.10
2022-12-01T23:01:57.231Z,24.30
2022-12-01T23:04:27.525Z,29.40
2022-12-01T23:06:57.514Z,27.10
2022-12-01T23:09:29.971Z,35.50
2022-12-01T23:12:15.828Z,31.90
2022-12-01T23:14:52.952Z,45.00
2022-12-01T23:17:25.928Z,75.50
2022-12-01T23:20:01.627Z,66.30
2022-12-01T23:24:55.671Z,56.50
2022-12-01T23:27:22.914Z,77.90
2022-12-01T23:29:50.025Z,76.70
2022-12-01T23:32:17.685Z,91.90
2022-12-01T23:34:44.709Z,81.20
2022-12-01T23:37:29.345Z,57.90
2022-12-01T23:39:56.524Z,43.90
2022-12-01T23:42:23.518Z,46.70
2022-12-01T23:44:51.047Z,61.40
2022-12-01T23:47:22.453Z,79.90
2022-12-01T23:49:58.510Z,50.00
2022-12-01T23:52:32.294Z,35.70
2022-12-01T23:54:59.802Z,32.70
2022-12-01T23:57:27.284Z,33.40
2022-12-01T23:59:58.967Z,30.10
